Terminal Aerodrome Forecast
Issued by NWS

Home | Current Version | Previous Version | Text Only | Print | Product List | Glossary On
Versions: 1 2 3 4 5 6 7 8 9 10 11 12 13 14 15 16 17 18 19 20 21 22 23
000
FTUS46 KMTR 021833 AAA
TAFMRY
TAF AMD
KMRY 021833Z 0219/0318 31005KT P6SM BKN200
     FM022100 26009KT P6SM SCT200
     FM030200 25007KT P6SM OVC015
     FM030400 00000KT P6SM OVC003
     FM031300 00000KT P6SM OVC007=

USA.gov is the U.S. government's official web portal to all federal, state and local government web resources and services.